Terminal Aerodrome Forecast
Issued by NWS Cleveland, OH

Home | Current Version | Previous Version | Graphics & Text | Print | Product List | Glossary On
Versions: 1 2 3 4 5 6 7 8 9 10 11 12 13 14 15 16
738
FTUS41 KCLE 162324
TAFMFD
TAF
KMFD 162324Z 1700/1724 08005KT P6SM SCT200
     FM170500 13005KT P6SM BKN200
     FM171400 19007KT P6SM OVC070
     FM171500 19008KT P6SM -TSRA OVC045CB
     FM171700 20008KT P6SM VCTS SCT035CB BKN070
     FM172000 20007KT P6SM -TSRA OVC035CB=

USA.gov is the U.S. government's official web portal to all federal, state and local government web resources and services.